createdAt,value
2023-09-06T00:01:26.432Z,100.00
2023-09-06T00:03:57.334Z,100.00
2023-09-06T00:06:29.343Z,100.00
2023-09-06T00:08:57.577Z,100.00
2023-09-06T00:11:26.505Z,100.00
2023-09-06T00:13:54.735Z,100.00
2023-09-06T00:16:22.922Z,100.00
2023-09-06T00:18:51.638Z,100.00
2023-09-06T00:21:19.649Z,100.00
2023-09-06T00:23:50.853Z,100.00
2023-09-06T00:26:19.296Z,100.00
2023-09-06T00:28:48.321Z,100.00
2023-09-06T00:31:16.374Z,100.00
2023-09-06T00:33:45.655Z,100.00
2023-09-06T00:36:13.721Z,100.00
2023-09-06T00:38:41.811Z,100.00
2023-09-06T00:41:12.613Z,100.00
2023-09-06T00:43:40.518Z,100.00
2023-09-06T00:46:09.204Z,100.00
2023-09-06T00:48:39.026Z,100.00
2023-09-06T00:51:08.537Z,100.00
2023-09-06T00:53:38.367Z,100.00
2023-09-06T00:56:10.327Z,100.00
2023-09-06T00:58:40.742Z,100.00
2023-09-06T01:01:09.194Z,100.00
2023-09-06T01:03:44.703Z,100.00
2023-09-06T01:06:20.142Z,100.00
2023-09-06T01:08:53.311Z,100.00
2023-09-06T01:11:24.256Z,100.00
2023-09-06T01:13:55.441Z,100.00
2023-09-06T01:16:30.835Z,100.00
2023-09-06T01:18:59.529Z,100.00
2023-09-06T01:21:36.103Z,100.00
2023-09-06T01:24:07.510Z,100.00
2023-09-06T01:26:36.633Z,100.00
2023-09-06T01:29:05.223Z,100.00
2023-09-06T01:31:33.444Z,100.00
2023-09-06T01:34:01.585Z,100.00
2023-09-06T01:36:31.891Z,100.00
2023-09-06T01:39:01.067Z,100.00
2023-09-06T01:41:31.227Z,100.00
2023-09-06T01:44:01.498Z,100.00
2023-09-06T01:46:29.633Z,100.00
2023-09-06T01:49:00.561Z,100.00
2023-09-06T01:51:29.167Z,100.00
2023-09-06T01:53:58.272Z,100.00
2023-09-06T01:56:26.607Z,100.00
2023-09-06T01:58:56.262Z,100.00
2023-09-06T02:01:24.609Z,100.00
2023-09-06T02:03:52.996Z,100.00
2023-09-06T02:06:21.671Z,100.00
2023-09-06T02:08:50.587Z,100.00
2023-09-06T02:11:20.435Z,100.00
2023-09-06T02:13:48.737Z,100.00
2023-09-06T02:16:20.154Z,100.00
2023-09-06T02:18:48.585Z,100.00
2023-09-06T02:21:16.544Z,100.00
2023-09-06T02:23:44.237Z,100.00
2023-09-06T02:26:13.428Z,100.00
2023-09-06T02:28:41.338Z,100.00
2023-09-06T02:31:09.556Z,100.00
2023-09-06T02:33:41.145Z,100.00
2023-09-06T02:36:08.787Z,100.00
2023-09-06T02:38:36.635Z,100.00
2023-09-06T02:41:04.693Z,100.00
2023-09-06T02:43:32.787Z,100.00
2023-09-06T02:46:04.695Z,100.00
2023-09-06T02:48:34.838Z,100.00
2023-09-06T02:51:06.088Z,100.00
2023-09-06T02:53:34.834Z,100.00
2023-09-06T02:56:03.088Z,100.00
2023-09-06T02:58:32.937Z,100.00
2023-09-06T03:01:07.393Z,100.00
2023-09-06T03:03:35.863Z,100.00
2023-09-06T03:06:06.214Z,100.00
2023-09-06T03:08:38.182Z,100.00
2023-09-06T03:11:08.818Z,100.00
2023-09-06T03:13:38.135Z,100.00
2023-09-06T03:16:06.941Z,100.00
2023-09-06T03:18:34.930Z,100.00
2023-09-06T03:21:06.158Z,100.00
2023-09-06T03:23:36.177Z,100.00
2023-09-06T03:26:10.533Z,100.00
2023-09-06T03:28:42.986Z,100.00
2023-09-06T03:31:16.883Z,100.00
2023-09-06T03:33:46.238Z,100.00
2023-09-06T03:36:16.004Z,100.00
2023-09-06T03:38:48.304Z,100.00
2023-09-06T03:41:17.898Z,100.00
2023-09-06T03:43:47.182Z,100.00
2023-09-06T03:46:16.098Z,100.00
2023-09-06T03:48:47.137Z,100.00
2023-09-06T03:51:15.786Z,100.00
2023-09-06T03:53:45.677Z,100.00
2023-09-06T03:56:13.677Z,100.00
2023-09-06T03:58:45.344Z,100.00
2023-09-06T04:01:16.849Z,100.00
2023-09-06T04:03:47.703Z,100.00
2023-09-06T04:06:18.801Z,100.00
2023-09-06T04:08:49.525Z,100.00
2023-09-06T04:11:18.534Z,100.00
2023-09-06T04:13:46.711Z,100.00
2023-09-06T04:16:18.219Z,100.00
2023-09-06T04:18:48.553Z,100.00
2023-09-06T04:21:17.530Z,100.00
2023-09-06T04:23:48.036Z,100.00
2023-09-06T04:26:21.405Z,100.00
2023-09-06T04:28:50.304Z,100.00
2023-09-06T04:31:20.792Z,100.00
2023-09-06T04:33:50.106Z,100.00
2023-09-06T04:36:27.458Z,100.00
2023-09-06T04:39:05.232Z,100.00
2023-09-06T04:41:38.010Z,100.00
2023-09-06T04:44:08.608Z,100.00
2023-09-06T04:46:37.306Z,100.00
2023-09-06T04:49:06.091Z,100.00
2023-09-06T04:51:35.317Z,100.00
2023-09-06T04:54:10.791Z,100.00
2023-09-06T04:56:41.644Z,100.00
2023-09-06T04:59:11.111Z,100.00
2023-09-06T05:01:39.271Z,100.00
2023-09-06T05:04:07.835Z,100.00
2023-09-06T05:06:37.778Z,100.00
2023-09-06T05:09:11.698Z,100.00
2023-09-06T05:11:39.757Z,100.00
2023-09-06T05:14:08.180Z,100.00
2023-09-06T05:16:37.319Z,100.00
2023-09-06T05:19:05.446Z,100.00
2023-09-06T05:21:37.382Z,100.00
2023-09-06T05:24:08.366Z,100.00
2023-09-06T05:26:36.487Z,100.00
2023-09-06T05:29:06.011Z,100.00
2023-09-06T05:31:36.095Z,100.00
2023-09-06T05:34:04.749Z,100.00
2023-09-06T05:36:32.631Z,100.00
2023-09-06T05:39:00.939Z,100.00
2023-09-06T05:41:33.087Z,100.00
2023-09-06T05:44:03.710Z,100.00
2023-09-06T05:46:34.112Z,100.00
2023-09-06T05:49:07.320Z,100.00
2023-09-06T05:51:40.855Z,100.00
2023-09-06T05:54:10.958Z,100.00
2023-09-06T05:56:41.817Z,100.00
2023-09-06T05:59:14.308Z,100.00
2023-09-06T06:01:43.259Z,100.00
2023-09-06T06:04:12.854Z,100.00
2023-09-06T06:06:40.840Z,100.00
2023-09-06T06:09:12.765Z,100.00
2023-09-06T06:11:42.524Z,100.00
2023-09-06T06:14:12.140Z,100.00
2023-09-06T06:16:41.501Z,100.00
2023-09-06T06:19:11.774Z,100.00
2023-09-06T06:21:40.114Z,100.00
2023-09-06T06:24:10.149Z,100.00
2023-09-06T06:26:38.048Z,100.00
2023-09-06T06:29:08.374Z,100.00
2023-09-06T06:31:36.337Z,100.00
2023-09-06T06:34:04.387Z,100.00
2023-09-06T06:36:32.959Z,100.00
2023-09-06T06:39:01.353Z,100.00
2023-09-06T06:41:30.178Z,100.00
2023-09-06T06:43:58.714Z,100.00
2023-09-06T06:46:30.481Z,100.00
2023-09-06T06:48:59.257Z,100.00
2023-09-06T06:51:27.829Z,100.00
2023-09-06T06:53:55.697Z,100.00
2023-09-06T06:56:23.566Z,100.00
2023-09-06T06:58:51.807Z,100.00
2023-09-06T07:01:20.058Z,100.00
2023-09-06T07:03:49.566Z,100.00
2023-09-06T07:06:17.916Z,100.00
2023-09-06T07:08:45.986Z,100.00
2023-09-06T07:11:15.121Z,100.00
2023-09-06T07:13:43.584Z,100.00
2023-09-06T07:16:12.053Z,100.00
2023-09-06T07:18:40.024Z,100.00
2023-09-06T07:21:09.860Z,100.00
2023-09-06T07:23:38.526Z,100.00
2023-09-06T07:26:06.997Z,100.00
2023-09-06T07:28:42.542Z,100.00
2023-09-06T07:31:11.821Z,100.00
2023-09-06T07:33:40.512Z,100.00
2023-09-06T07:36:11.576Z,100.00
2023-09-06T07:38:40.048Z,100.00
2023-09-06T07:41:10.318Z,100.00
2023-09-06T07:43:39.605Z,100.00
2023-09-06T07:46:12.049Z,100.00
2023-09-06T07:48:40.585Z,100.00
2023-09-06T07:51:12.239Z,100.00
2023-09-06T07:53:41.196Z,94.45
2023-09-06T07:56:09.762Z,94.36
2023-09-06T07:58:38.117Z,94.13
2023-09-06T08:01:17.955Z,93.12
2023-09-06T08:03:48.562Z,91.90
2023-09-06T08:06:19.847Z,87.50
2023-09-06T08:08:47.971Z,83.96
2023-09-06T08:11:19.691Z,83.69
2023-09-06T08:13:48.710Z,80.58
2023-09-06T08:16:17.131Z,79.24
2023-09-06T08:18:48.250Z,79.82
2023-09-06T08:21:17.427Z,80.27
2023-09-06T08:23:46.999Z,80.61
2023-09-06T08:26:15.063Z,81.42
2023-09-06T08:28:43.177Z,81.02
2023-09-06T08:31:12.635Z,81.70
2023-09-06T08:33:41.248Z,78.69
2023-09-06T08:36:09.726Z,78.40
2023-09-06T08:38:37.772Z,73.57
2023-09-06T08:41:08.956Z,73.06
2023-09-06T08:43:44.080Z,72.34
2023-09-06T08:46:20.877Z,69.19
2023-09-06T08:48:49.889Z,72.40
2023-09-06T08:51:18.288Z,73.88
2023-09-06T08:54:00.832Z,74.45
2023-09-06T08:56:31.249Z,74.13
2023-09-06T08:59:00.876Z,74.45
2023-09-06T09:01:31.408Z,67.67
2023-09-06T09:04:00.710Z,68.97
2023-09-06T09:06:31.579Z,66.06
2023-09-06T09:09:15.477Z,63.78
2023-09-06T09:11:47.420Z,64.08
2023-09-06T09:14:24.471Z,63.93
2023-09-06T09:16:56.648Z,64.39
2023-09-06T09:19:25.400Z,62.46
2023-09-06T09:21:58.362Z,62.21
2023-09-06T09:24:28.136Z,57.96
2023-09-06T09:26:58.673Z,58.10
2023-09-06T09:29:26.638Z,59.41
2023-09-06T09:31:54.965Z,58.02
2023-09-06T09:34:25.849Z,57.90
2023-09-06T09:36:53.945Z,58.25
2023-09-06T09:39:28.150Z,57.16
2023-09-06T09:42:01.188Z,56.86
2023-09-06T09:44:29.737Z,55.59
2023-09-06T09:46:58.845Z,56.18
2023-09-06T09:49:28.294Z,54.41
2023-09-06T09:52:00.116Z,53.99
2023-09-06T09:54:34.667Z,55.14
2023-09-06T09:57:07.946Z,55.27
2023-09-06T09:59:40.116Z,53.94
2023-09-06T10:02:09.387Z,53.93
2023-09-06T10:04:39.494Z,53.47
2023-09-06T10:07:10.613Z,52.87
2023-09-06T10:09:41.389Z,52.80
2023-09-06T10:12:12.791Z,53.14
2023-09-06T10:14:41.298Z,52.06
2023-09-06T10:17:09.968Z,52.36
2023-09-06T10:19:53.733Z,52.23
2023-09-06T10:22:23.668Z,51.77
2023-09-06T10:24:54.892Z,50.35
2023-09-06T10:27:33.669Z,49.65
2023-09-06T10:30:04.890Z,49.36
2023-09-06T10:32:43.042Z,48.51
2023-09-06T10:35:22.335Z,48.15
2023-09-06T10:38:09.093Z,48.01
2023-09-06T10:41:11.830Z,48.57
2023-09-06T10:43:57.396Z,47.53
2023-09-06T10:46:28.375Z,47.84
2023-09-06T10:49:36.039Z,47.01
2023-09-06T10:52:09.489Z,47.67
2023-09-06T10:54:41.734Z,47.31
2023-09-06T10:57:12.810Z,45.46
2023-09-06T10:59:45.043Z,46.63
2023-09-06T11:02:20.547Z,46.89
2023-09-06T11:04:50.898Z,46.70
2023-09-06T11:07:19.092Z,45.96
2023-09-06T11:09:51.276Z,45.45
2023-09-06T11:12:21.227Z,45.72
2023-09-06T11:14:56.759Z,45.54
2023-09-06T11:17:27.666Z,45.51
2023-09-06T11:19:56.587Z,45.33
2023-09-06T11:22:24.583Z,44.77
2023-09-06T11:24:52.876Z,44.45
2023-09-06T11:27:22.801Z,44.45
2023-09-06T11:29:58.790Z,44.29
2023-09-06T11:32:27.805Z,44.29
2023-09-06T11:34:57.322Z,43.43
2023-09-06T11:37:26.859Z,43.15
2023-09-06T11:39:55.117Z,43.61
2023-09-06T11:42:27.922Z,43.88
2023-09-06T11:44:59.573Z,43.91
2023-09-06T11:47:31.976Z,43.64
2023-09-06T11:50:03.578Z,43.69
2023-09-06T11:52:38.602Z,43.95
2023-09-06T11:55:14.916Z,43.56
2023-09-06T11:57:47.791Z,43.14
2023-09-06T12:00:27.034Z,42.92
2023-09-06T12:02:55.853Z,42.86
2023-09-06T12:05:38.758Z,41.84
2023-09-06T12:08:13.537Z,42.53
2023-09-06T12:10:41.805Z,42.84
2023-09-06T12:13:11.598Z,42.90
2023-09-06T12:15:42.038Z,42.49
2023-09-06T12:18:10.012Z,42.38
2023-09-06T12:20:38.078Z,41.61
2023-09-06T12:23:07.065Z,41.66
2023-09-06T12:25:35.852Z,41.20
2023-09-06T12:28:05.319Z,41.27
2023-09-06T12:30:33.534Z,41.28
2023-09-06T12:33:04.885Z,41.27
2023-09-06T12:35:37.113Z,41.84
2023-09-06T12:38:07.380Z,41.21
2023-09-06T12:40:35.980Z,41.04
2023-09-06T12:43:05.625Z,41.53
2023-09-06T12:45:35.064Z,42.04
2023-09-06T12:48:07.106Z,41.97
2023-09-06T12:50:35.935Z,42.21
2023-09-06T12:53:06.639Z,41.12
2023-09-06T12:55:34.867Z,41.03
2023-09-06T12:58:05.095Z,42.00
2023-09-06T13:00:33.637Z,42.60
2023-09-06T13:03:03.049Z,41.27
2023-09-06T13:05:33.728Z,41.34
2023-09-06T13:08:04.791Z,41.37
2023-09-06T13:10:33.105Z,40.98
2023-09-06T13:13:02.730Z,41.16
2023-09-06T13:15:30.818Z,40.72
2023-09-06T13:17:58.859Z,40.15
2023-09-06T13:20:27.504Z,39.31
2023-09-06T13:22:58.312Z,39.30
2023-09-06T13:25:27.805Z,39.72
2023-09-06T13:27:55.883Z,39.74
2023-09-06T13:30:24.205Z,38.62
2023-09-06T13:32:52.350Z,38.67
2023-09-06T13:35:20.117Z,38.40
2023-09-06T13:37:48.085Z,39.13
2023-09-06T13:40:18.658Z,39.30
2023-09-06T13:42:46.523Z,39.25
2023-09-06T13:45:16.365Z,39.25
2023-09-06T13:47:44.728Z,38.99
2023-09-06T13:50:12.831Z,39.29
2023-09-06T13:52:41.360Z,38.96
2023-09-06T13:55:09.826Z,38.98
2023-09-06T13:57:39.952Z,38.65
2023-09-06T14:00:12.981Z,38.87
2023-09-06T14:02:41.522Z,38.43
2023-09-06T14:05:10.501Z,39.08
2023-09-06T14:07:38.310Z,38.32
2023-09-06T14:10:06.877Z,38.28
2023-09-06T14:12:35.323Z,38.72
2023-09-06T14:15:05.498Z,38.45
2023-09-06T14:17:33.472Z,39.54
2023-09-06T14:20:01.332Z,37.67
2023-09-06T14:22:29.581Z,38.60
2023-09-06T14:24:57.340Z,37.77
2023-09-06T14:27:28.331Z,37.57
2023-09-06T14:29:58.794Z,37.68
2023-09-06T14:32:28.658Z,37.74
2023-09-06T14:34:56.822Z,37.51
2023-09-06T14:37:25.181Z,38.13
2023-09-06T14:39:53.040Z,38.00
2023-09-06T14:42:20.923Z,37.99
2023-09-06T14:44:51.625Z,37.42
2023-09-06T14:47:22.168Z,37.15
2023-09-06T14:49:53.187Z,38.03
2023-09-06T14:52:28.452Z,37.60
2023-09-06T14:54:58.086Z,37.89
2023-09-06T14:57:26.551Z,37.52
2023-09-06T14:59:55.177Z,37.72
2023-09-06T15:02:27.244Z,38.00
2023-09-06T15:05:06.161Z,37.84
2023-09-06T15:07:35.292Z,37.95
2023-09-06T15:10:05.407Z,37.54
2023-09-06T15:12:33.737Z,37.52
2023-09-06T15:15:02.646Z,37.51
2023-09-06T15:17:31.892Z,37.26
2023-09-06T15:20:00.438Z,37.35
2023-09-06T15:22:38.661Z,37.00
2023-09-06T15:25:08.244Z,37.38
2023-09-06T15:27:37.117Z,38.23
2023-09-06T15:30:06.628Z,38.16
2023-09-06T15:32:35.971Z,38.13
2023-09-06T15:35:06.711Z,37.57
2023-09-06T15:37:37.158Z,36.97
2023-09-06T15:40:06.896Z,37.71
2023-09-06T15:42:35.107Z,37.34
2023-09-06T15:45:09.536Z,36.66
2023-09-06T15:47:41.882Z,37.21
2023-09-06T15:50:11.800Z,36.89
2023-09-06T15:52:41.168Z,37.51
2023-09-06T15:55:11.139Z,37.95
2023-09-06T15:57:40.394Z,38.39
2023-09-06T16:02:46.303Z,38.43
2023-09-06T16:05:14.375Z,38.88
2023-09-06T16:07:45.889Z,38.84
2023-09-06T16:10:16.746Z,38.83
2023-09-06T16:12:48.992Z,39.13
2023-09-06T16:15:20.526Z,38.83
2023-09-06T16:17:50.234Z,38.80
2023-09-06T16:20:21.947Z,39.28
2023-09-06T16:22:53.768Z,39.52
2023-09-06T16:25:21.826Z,40.03
2023-09-06T16:27:50.192Z,40.25
2023-09-06T16:30:19.354Z,40.12
2023-09-06T16:32:50.001Z,40.51
2023-09-06T16:35:18.334Z,40.50
2023-09-06T16:37:49.874Z,40.87
2023-09-06T16:40:22.024Z,41.26
2023-09-06T16:42:52.255Z,41.44
2023-09-06T16:45:20.828Z,41.73
2023-09-06T16:47:51.500Z,41.79
2023-09-06T16:50:20.954Z,42.10
2023-09-06T16:52:51.858Z,42.43
2023-09-06T16:55:21.464Z,42.51
2023-09-06T16:57:52.517Z,42.79
2023-09-06T17:00:22.842Z,43.17
2023-09-06T17:02:53.858Z,43.46
2023-09-06T17:05:23.087Z,43.91
2023-09-06T17:07:52.741Z,44.22
2023-09-06T17:10:23.543Z,44.39
2023-09-06T17:12:53.266Z,44.49
2023-09-06T17:15:23.194Z,44.77
2023-09-06T17:17:51.841Z,45.00
2023-09-06T17:20:23.012Z,45.44
2023-09-06T17:22:52.482Z,45.94
2023-09-06T17:25:22.478Z,46.09
2023-09-06T17:27:50.692Z,46.64
2023-09-06T17:30:22.128Z,46.97
2023-09-06T17:33:04.174Z,47.57
2023-09-06T17:35:34.729Z,48.02
2023-09-06T17:38:06.939Z,48.35
2023-09-06T17:40:36.649Z,48.84
2023-09-06T17:43:05.073Z,49.13
2023-09-06T17:45:35.602Z,49.63
2023-09-06T17:48:11.331Z,49.95
2023-09-06T17:50:42.362Z,50.87
2023-09-06T17:53:11.684Z,51.15
2023-09-06T17:55:42.595Z,51.31
2023-09-06T17:58:10.414Z,51.86
2023-09-06T18:00:42.690Z,52.67
2023-09-06T18:03:15.557Z,53.36
2023-09-06T18:05:46.279Z,54.21
2023-09-06T18:08:16.539Z,55.08
2023-09-06T18:10:45.876Z,56.06
2023-09-06T18:13:15.603Z,56.59
2023-09-06T18:15:43.769Z,57.43
2023-09-06T18:18:14.508Z,57.43
2023-09-06T18:20:44.200Z,57.49
2023-09-06T18:23:12.497Z,56.79
2023-09-06T18:25:41.619Z,57.39
2023-09-06T18:28:11.709Z,56.84
2023-09-06T18:30:40.017Z,56.57
2023-09-06T18:33:08.676Z,56.51
2023-09-06T18:35:36.678Z,56.90
2023-09-06T18:38:05.121Z,57.16
2023-09-06T18:40:33.496Z,57.96
2023-09-06T18:43:02.524Z,58.07
2023-09-06T18:45:32.739Z,58.30
2023-09-06T18:48:00.807Z,58.71
2023-09-06T18:50:31.678Z,59.05
2023-09-06T18:52:59.679Z,60.39
2023-09-06T18:55:27.506Z,62.03
2023-09-06T18:58:05.578Z,63.95
2023-09-06T19:00:37.615Z,65.76
2023-09-06T19:03:07.399Z,67.76
2023-09-06T19:05:36.719Z,69.47
2023-09-06T19:08:05.110Z,70.56
2023-09-06T19:10:34.818Z,72.21
2023-09-06T19:13:02.604Z,73.27
2023-09-06T19:15:30.608Z,74.47
2023-09-06T19:18:00.224Z,76.01
2023-09-06T19:20:28.265Z,77.04
2023-09-06T19:22:55.927Z,78.77
2023-09-06T19:25:25.487Z,80.21
2023-09-06T19:27:54.753Z,81.57
2023-09-06T19:30:22.875Z,83.35
2023-09-06T19:32:50.970Z,84.18
2023-09-06T19:35:20.987Z,85.59
2023-09-06T19:37:49.100Z,86.17
2023-09-06T19:40:16.998Z,87.94
2023-09-06T19:42:44.821Z,89.01
2023-09-06T19:45:15.595Z,90.22
2023-09-06T19:47:43.606Z,91.05
2023-09-06T19:50:11.663Z,92.54
2023-09-06T19:52:40.985Z,93.90
2023-09-06T19:55:09.177Z,94.58
2023-09-06T19:57:38.340Z,95.22
2023-09-06T20:00:11.722Z,96.38
2023-09-06T20:02:44.144Z,96.92
2023-09-06T20:05:12.427Z,97.63
2023-09-06T20:07:42.013Z,98.41
2023-09-06T20:10:12.763Z,99.03
2023-09-06T20:12:40.769Z,99.60
2023-09-06T20:15:09.568Z,99.83
2023-09-06T20:17:37.603Z,100.00
2023-09-06T20:20:08.240Z,100.00
2023-09-06T20:22:35.928Z,100.00
2023-09-06T20:25:06.402Z,100.00
2023-09-06T20:27:34.264Z,100.00
2023-09-06T20:30:02.614Z,100.00
2023-09-06T20:32:30.806Z,100.00
2023-09-06T20:35:01.598Z,100.00
2023-09-06T20:37:29.323Z,100.00
2023-09-06T20:39:59.363Z,100.00
2023-09-06T20:42:29.156Z,100.00
2023-09-06T20:44:57.345Z,100.00
2023-09-06T20:47:26.013Z,100.00
2023-09-06T20:50:01.590Z,100.00
2023-09-06T20:52:29.412Z,100.00
2023-09-06T20:54:57.464Z,100.00
2023-09-06T20:57:25.225Z,100.00
2023-09-06T20:59:54.600Z,100.00
2023-09-06T21:02:23.402Z,100.00
2023-09-06T21:04:51.284Z,100.00
2023-09-06T21:07:19.772Z,100.00
2023-09-06T21:09:47.551Z,100.00
2023-09-06T21:12:15.548Z,100.00
2023-09-06T21:14:43.473Z,100.00
2023-09-06T21:17:12.627Z,100.00
2023-09-06T21:19:40.843Z,100.00
2023-09-06T21:22:09.089Z,100.00
2023-09-06T21:24:37.132Z,100.00
2023-09-06T21:27:05.892Z,100.00
2023-09-06T21:29:33.869Z,100.00
2023-09-06T21:32:01.840Z,100.00
2023-09-06T21:34:31.077Z,100.00
2023-09-06T21:36:59.299Z,100.00
2023-09-06T21:39:27.709Z,100.00
2023-09-06T21:41:56.626Z,100.00
2023-09-06T21:44:25.434Z,100.00
2023-09-06T21:46:53.446Z,100.00
2023-09-06T21:49:22.057Z,100.00
2023-09-06T21:51:51.878Z,100.00
2023-09-06T21:54:21.146Z,100.00
2023-09-06T21:56:49.261Z,100.00
2023-09-06T21:59:17.283Z,100.00
2023-09-06T22:01:45.373Z,100.00
2023-09-06T22:04:32.102Z,100.00
2023-09-06T22:07:20.012Z,100.00
2023-09-06T22:10:07.541Z,100.00
2023-09-06T22:12:54.717Z,100.00
2023-09-06T22:15:22.770Z,100.00
2023-09-06T22:17:51.421Z,100.00
2023-09-06T22:20:20.343Z,100.00
2023-09-06T22:22:49.873Z,100.00
2023-09-06T22:25:17.833Z,100.00
2023-09-06T22:27:45.659Z,100.00
2023-09-06T22:30:14.144Z,100.00
2023-09-06T22:32:42.291Z,100.00
2023-09-06T22:35:10.706Z,100.00
2023-09-06T22:37:43.091Z,100.00
2023-09-06T22:40:13.929Z,100.00
2023-09-06T22:42:42.279Z,100.00
2023-09-06T22:45:11.957Z,100.00
2023-09-06T22:47:39.756Z,100.00
2023-09-06T22:50:08.535Z,100.00
2023-09-06T22:52:37.341Z,100.00
2023-09-06T22:55:05.979Z,100.00
2023-09-06T22:57:35.522Z,100.00
2023-09-06T23:00:07.089Z,100.00
2023-09-06T23:02:35.242Z,100.00
2023-09-06T23:05:02.991Z,100.00
2023-09-06T23:07:31.538Z,100.00
2023-09-06T23:10:00.643Z,100.00
2023-09-06T23:12:28.555Z,100.00
2023-09-06T23:14:57.964Z,100.00
2023-09-06T23:17:32.903Z,100.00
2023-09-06T23:20:13.505Z,100.00
2023-09-06T23:22:45.429Z,100.00
2023-09-06T23:25:15.815Z,100.00
2023-09-06T23:27:46.733Z,100.00
2023-09-06T23:30:19.173Z,100.00
2023-09-06T23:32:51.550Z,100.00
2023-09-06T23:35:21.561Z,100.00
2023-09-06T23:37:51.586Z,100.00
2023-09-06T23:40:23.584Z,100.00
2023-09-06T23:42:54.384Z,100.00
2023-09-06T23:45:25.214Z,100.00
2023-09-06T23:47:57.906Z,100.00
2023-09-06T23:50:27.097Z,100.00
2023-09-06T23:52:57.094Z,100.00
2023-09-06T23:55:28.275Z,100.00
2023-09-06T23:57:56.360Z,100.00
